Time;durP1;ratioP1;P1;durP2;ratioP2;P2;SDS_P1;SDS_P2;PMS_P1;PMS_P2;Temp;Humidity;BMP_temperature;BMP_pressure;BME280_temperature;BME280_humidity;BME280_pressure;Samples;Min_cycle;Max_cycle;Signal;HPM_P1;HPM_P2
2022/06/14 00:00:54;;;;;;;12.77;2.00;;;10.00;99.90;;;;;;5103255;27;20128;-67
2022/06/14 00:03:36;;;;;;;8.95;2.30;;;10.10;99.90;;;;;;5078683;28;20048;-67
2022/06/14 00:06:24;;;;;;;5.00;1.25;;;10.20;99.90;;;;;;5107086;27;20081;-67
2022/06/14 00:08:51;;;;;;;9.00;2.50;;;10.20;99.90;;;;;;5076793;28;20070;-67
2022/06/14 00:11:27;;;;;;;7.55;2.67;;;10.20;99.90;;;;;;5094687;28;20048;-67
2022/06/14 00:13:55;;;;;;;8.25;2.58;;;10.10;99.90;;;;;;5073396;28;20048;-67
2022/06/14 00:16:22;;;;;;;8.88;2.22;;;10.10;99.90;;;;;;5060011;28;20047;-67
2022/06/14 00:18:48;;;;;;;7.05;1.98;;;10.20;99.90;;;;;;5107274;27;20126;-67
2022/06/14 00:21:14;;;;;;;9.98;2.05;;;10.20;99.90;;;;;;5080259;28;20127;-67
2022/06/14 00:23:40;;;;;;;8.88;2.30;;;10.20;99.90;;;;;;5064683;28;20039;-67
2022/06/14 00:26:06;;;;;;;10.10;2.22;;;10.20;99.90;;;;;;5094730;28;20389;-67
2022/06/14 00:28:33;;;;;;;9.23;2.40;;;10.20;99.90;;;;;;5075288;28;20489;-67
2022/06/14 00:31:07;;;;;;;8.63;2.45;;;10.20;99.90;;;;;;5091541;28;20052;-67
2022/06/14 00:33:32;;;;;;;12.27;3.38;;;10.20;99.90;;;;;;5092457;28;20590;-67
2022/06/14 00:36:00;;;;;;;7.78;2.20;;;10.20;99.90;;;;;;5078159;28;20046;-67
2022/06/14 00:38:26;;;;;;;9.10;2.40;;;10.20;99.90;;;;;;5072941;28;20497;-67
2022/06/14 00:40:55;;;;;;;11.00;2.83;;;10.20;99.90;;;;;;5092299;28;20040;-67
2022/06/14 00:43:21;;;;;;;8.02;1.98;;;10.20;99.90;;;;;;5072413;28;20097;-67
2022/06/14 00:45:48;;;;;;;5.18;1.45;;;10.20;99.90;;;;;;5072317;28;20085;-67
2022/06/14 00:48:18;;;;;;;8.02;2.05;;;10.20;99.90;;;;;;5091745;28;20043;-67
2022/06/14 00:50:56;;;;;;;7.65;2.10;;;10.10;99.90;;;;;;5077930;28;20050;-67
2022/06/14 00:53:30;;;;;;;5.38;2.15;;;10.10;99.90;;;;;;5093562;28;20392;-67
2022/06/14 00:55:57;;;;;;;9.93;3.13;;;10.00;99.90;;;;;;5094648;28;20075;-67
2022/06/14 00:58:58;;;;;;;12.10;2.70;;;10.00;99.90;;;;;;5075385;28;20046;-67
2022/06/14 01:01:28;;;;;;;9.57;2.25;;;10.00;99.90;;;;;;5071923;28;20090;-67
2022/06/14 01:04:00;;;;;;;4.20;1.80;;;10.00;99.90;;;;;;5090065;28;20055;-67
2022/06/14 01:06:46;;;;;;;9.27;2.25;;;10.00;99.90;;;;;;5076634;28;20081;-67
2022/06/14 01:09:16;;;;;;;5.00;1.65;;;9.90;99.90;;;;;;5091810;28;20105;-67
2022/06/14 01:11:51;;;;;;;5.47;2.08;;;9.80;99.90;;;;;;5074104;28;20158;-67
2022/06/14 01:14:24;;;;;;;9.07;2.15;;;9.80;99.90;;;;;;5094630;28;20204;-67
2022/06/14 01:16:51;;;;;;;8.10;2.97;;;9.70;99.90;;;;;;5077512;28;20057;-67
2022/06/14 01:19:26;;;;;;;5.82;1.85;;;9.70;99.90;;;;;;5105399;27;20048;-67
2022/06/14 01:21:54;;;;;;;6.78;2.40;;;9.60;99.90;;;;;;5075653;28;20036;-66
2022/06/14 01:24:22;;;;;;;7.00;2.60;;;9.60;99.90;;;;;;5075699;28;20097;-67
2022/06/14 01:26:48;;;;;;;7.22;2.15;;;9.60;99.90;;;;;;5094511;28;20032;-67
2022/06/14 01:29:15;;;;;;;7.47;3.83;;;9.50;99.90;;;;;;5071137;28;20040;-67
2022/06/14 01:31:41;;;;;;;6.68;2.47;;;9.40;99.90;;;;;;5093311;28;20113;-67
2022/06/14 01:34:08;;;;;;;5.53;2.10;;;9.50;99.90;;;;;;5078926;28;20035;-67
2022/06/14 01:36:38;;;;;;;5.32;1.55;;;9.40;99.90;;;;;;5061892;28;20047;-67
2022/06/14 01:39:07;;;;;;;4.22;1.67;;;9.40;99.90;;;;;;5077324;28;20048;-67
2022/06/14 01:42:02;;;;;;;8.85;2.42;;;9.30;99.90;;;;;;5074595;28;20114;-67
2022/06/14 01:44:46;;;;;;;5.53;2.53;;;9.30;99.90;;;;;;5078337;28;20032;-67
2022/06/14 01:47:23;;;;;;;12.32;3.30;;;9.40;99.90;;;;;;5109143;27;20036;-67
2022/06/14 01:53:13;;;;;;;3.78;2.38;;;9.40;99.90;;;;;;5071212;28;20259;-67
2022/06/14 01:56:08;;;;;;;7.82;3.47;;;9.40;99.90;;;;;;5074480;28;20586;-67
2022/06/14 01:58:53;;;;;;;9.00;3.38;;;9.40;99.90;;;;;;5105280;27;20045;-67
2022/06/14 02:01:24;;;;;;;9.30;3.42;;;9.50;99.90;;;;;;5076891;28;20032;-67
2022/06/14 02:04:38;;;;;;;7.97;3.03;;;9.50;99.90;;;;;;5072207;28;20059;-67
2022/06/14 02:07:25;;;;;;;8.93;3.10;;;9.60;99.90;;;;;;5074995;28;20040;-67
2022/06/14 02:10:06;;;;;;;10.80;3.33;;;9.60;99.90;;;;;;5090989;28;20115;-67
2022/06/14 02:12:57;;;;;;;9.75;2.90;;;9.60;99.90;;;;;;5075306;28;20044;-67
2022/06/14 02:15:41;;;;;;;6.80;2.80;;;9.60;99.90;;;;;;5073588;28;20040;-67
2022/06/14 02:18:30;;;;;;;6.03;3.13;;;9.60;99.90;;;;;;5074725;28;20505;-67
2022/06/14 02:21:02;;;;;;;7.40;3.22;;;9.60;99.90;;;;;;5075309;28;20044;-67
2022/06/14 02:23:33;;;;;;;9.23;3.90;;;9.60;99.90;;;;;;5089651;28;20068;-67
2022/06/14 02:26:04;;;;;;;7.32;3.05;;;9.70;99.90;;;;;;5091496;28;20059;-67
2022/06/14 02:28:41;;;;;;;9.65;2.83;;;9.60;99.90;;;;;;5091501;28;20063;-67
2022/06/14 02:31:21;;;;;;;5.70;2.70;;;9.70;99.90;;;;;;5076192;28;20039;-67
2022/06/14 02:34:00;;;;;;;11.25;3.70;;;9.70;99.90;;;;;;5070553;28;20075;-67
2022/06/14 02:36:35;;;;;;;8.60;3.33;;;9.70;99.90;;;;;;5074208;28;20051;-67
2022/06/14 02:39:23;;;;;;;5.40;2.85;;;9.70;99.90;;;;;;5075961;28;20032;-67
2022/06/14 02:42:06;;;;;;;8.32;3.15;;;9.70;99.90;;;;;;5065521;28;20043;-66
2022/06/14 02:45:42;;;;;;;8.15;3.22;;;9.70;99.90;;;;;;5092397;28;20032;-67
2022/06/14 02:48:17;;;;;;;6.55;2.92;;;9.70;99.90;;;;;;4969248;28;20133;-67
2022/06/14 02:50:54;;;;;;;7.43;3.15;;;9.70;99.90;;;;;;4985991;28;20046;-67
2022/06/14 02:53:25;;;;;;;7.03;3.40;;;9.60;99.90;;;;;;5049154;28;20044;-67
2022/06/14 02:56:14;;;;;;;11.40;3.47;;;9.70;99.90;;;;;;5095710;28;20125;-67
2022/06/14 02:59:08;;;;;;;10.75;4.38;;;9.60;99.90;;;;;;5094619;28;20032;-67
2022/06/14 03:01:46;;;;;;;7.50;3.15;;;9.60;99.90;;;;;;5088756;28;20562;-67
2022/06/14 03:04:30;;;;;;;5.45;2.65;;;9.60;99.90;;;;;;5077421;28;20039;-67
2022/06/14 03:07:04;;;;;;;5.00;2.92;;;9.60;99.90;;;;;;5070117;28;20529;-67
2022/06/14 03:09:31;;;;;;;7.35;2.70;;;9.60;99.90;;;;;;5074963;28;20649;-67
2022/06/14 03:12:05;;;;;;;6.45;2.97;;;9.60;99.90;;;;;;5090551;28;20035;-67
2022/06/14 03:15:08;;;;;;;12.48;4.35;;;9.50;99.90;;;;;;5074680;28;20558;-67
2022/06/14 03:18:01;;;;;;;9.88;3.90;;;9.50;99.90;;;;;;5093511;28;20039;-67
2022/06/14 03:20:41;;;;;;;6.38;3.50;;;9.60;99.90;;;;;;5071030;28;20036;-67
2022/06/14 03:23:25;;;;;;;9.82;4.32;;;9.60;99.90;;;;;;5090329;28;20032;-67
2022/06/14 03:26:10;;;;;;;10.50;3.78;;;9.60;99.90;;;;;;5090660;28;20036;-67
2022/06/14 03:28:54;;;;;;;6.68;2.70;;;9.70;99.90;;;;;;5108104;27;20039;-67
2022/06/14 03:31:36;;;;;;;9.73;3.20;;;9.60;99.90;;;;;;5093538;28;20046;-67
2022/06/14 03:34:09;;;;;;;9.18;3.22;;;9.60;99.90;;;;;;5071223;28;20043;-67
2022/06/14 03:36:35;;;;;;;10.38;3.42;;;9.60;99.90;;;;;;5088832;28;20550;-67
2022/06/14 03:39:18;;;;;;;5.57;2.95;;;9.70;99.90;;;;;;5090774;28;20535;-67
2022/06/14 03:41:47;;;;;;;9.32;3.25;;;9.70;99.90;;;;;;5097079;28;20036;-67
2022/06/14 03:44:15;;;;;;;4.85;2.58;;;9.70;99.90;;;;;;5071434;28;20519;-67
2022/06/14 03:47:12;;;;;;;8.65;3.05;;;9.70;99.90;;;;;;5089965;28;20110;-67
2022/06/14 03:49:42;;;;;;;6.43;2.85;;;9.70;99.90;;;;;;5074729;28;20060;-67
2022/06/14 03:52:26;;;;;;;10.57;3.10;;;9.70;99.90;;;;;;5070351;28;20032;-67
2022/06/14 03:55:23;;;;;;;10.32;2.92;;;9.80;99.90;;;;;;5070601;28;20040;-67
2022/06/14 03:58:23;;;;;;;6.78;2.67;;;9.80;99.90;;;;;;5089840;28;20047;-67
2022/06/14 04:01:11;;;;;;;6.22;2.75;;;9.80;99.90;;;;;;5086236;28;20040;-67
2022/06/14 04:04:02;;;;;;;5.05;2.47;;;9.80;99.90;;;;;;5090832;28;20139;-67
2022/06/14 04:06:45;;;;;;;5.57;2.35;;;9.80;99.90;;;;;;5087464;28;20577;-67
2022/06/14 04:09:39;;;;;;;5.80;2.78;;;9.80;99.90;;;;;;5069543;28;20043;-67
2022/06/14 04:12:20;;;;;;;6.38;2.72;;;9.90;99.90;;;;;;5070795;28;20044;-67
2022/06/14 04:15:00;;;;;;;5.70;2.70;;;10.00;99.90;;;;;;5074173;28;20039;-67
2022/06/14 04:17:45;;;;;;;6.55;2.85;;;10.10;99.90;;;;;;5104018;28;20051;-67
2022/06/14 04:20:23;;;;;;;9.50;3.30;;;10.20;99.90;;;;;;5070948;28;20119;-67
2022/06/14 04:22:55;;;;;;;4.60;2.08;;;10.40;99.90;;;;;;5068041;28;20032;-67
2022/06/14 04:25:48;;;;;;;9.85;3.30;;;10.50;99.90;;;;;;5071488;28;20523;-67
2022/06/14 04:28:28;;;;;;;9.02;3.33;;;10.50;99.90;;;;;;5102487;28;20044;-67
2022/06/14 04:31:31;;;;;;;10.15;3.13;;;10.70;99.90;;;;;;5088549;28;20083;-67
2022/06/14 04:34:23;;;;;;;6.18;3.08;;;10.90;99.90;;;;;;5072353;28;20052;-67
2022/06/14 04:37:07;;;;;;;6.82;2.80;;;11.10;99.90;;;;;;5088938;28;21505;-67
2022/06/14 04:39:40;;;;;;;8.02;2.90;;;11.30;99.90;;;;;;5093473;28;20269;-67
2022/06/14 04:42:15;;;;;;;9.07;3.13;;;11.50;99.90;;;;;;5093260;28;20370;-67
2022/06/14 04:44:54;;;;;;;7.45;2.53;;;11.70;99.90;;;;;;5069584;28;20119;-67
2022/06/14 04:47:43;;;;;;;7.82;2.70;;;11.90;99.90;;;;;;5092291;28;20043;-67
2022/06/14 04:50:17;;;;;;;6.47;2.67;;;12.50;99.90;;;;;;5074287;28;20077;-67
2022/06/14 04:52:51;;;;;;;8.25;2.33;;;13.20;99.90;;;;;;5072707;28;20131;-67
2022/06/14 04:55:41;;;;;;;9.18;2.22;;;13.70;99.90;;;;;;5088783;28;20670;-67
2022/06/14 04:58:22;;;;;;;7.90;2.78;;;13.90;99.90;;;;;;5073687;28;20166;-67
2022/06/14 05:01:14;;;;;;;10.35;2.80;;;14.60;99.90;;;;;;5091450;28;20040;-67
2022/06/14 05:04:00;;;;;;;5.88;2.22;;;14.90;99.90;;;;;;5093736;27;20044;-67
2022/06/14 05:06:34;;;;;;;9.00;2.90;;;15.40;99.90;;;;;;5089850;28;20057;-67
2022/06/14 05:09:21;;;;;;;5.80;2.65;;;16.20;99.90;;;;;;5071923;28;20071;-67
2022/06/14 05:12:01;;;;;;;7.00;2.30;;;16.80;99.90;;;;;;5074673;28;20090;-67
2022/06/14 05:14:36;;;;;;;11.10;2.10;;;17.60;99.90;;;;;;5091837;28;20427;-68
2022/06/14 05:17:05;;;;;;;5.47;1.75;;;18.20;99.90;;;;;;5097019;28;20036;-67
2022/06/14 05:20:07;;;;;;;7.22;2.10;;;18.60;99.90;;;;;;5108347;27;20045;-68
2022/06/14 05:22:45;;;;;;;8.98;2.67;;;18.70;99.90;;;;;;5092602;28;20036;-67
2022/06/14 05:25:12;;;;;;;4.75;2.05;;;18.50;99.90;;;;;;5092968;28;20035;-67
2022/06/14 05:28:07;;;;;;;9.13;2.25;;;18.40;99.90;;;;;;5085019;28;20051;-68
2022/06/14 05:30:54;;;;;;;5.25;1.75;;;18.20;99.90;;;;;;5084416;28;20489;-67
2022/06/14 05:33:38;;;;;;;7.40;1.95;;;18.10;99.90;;;;;;5092698;28;20085;-67
2022/06/14 05:36:15;;;;;;;8.07;2.38;;;18.10;99.90;;;;;;5068558;28;20289;-67
2022/06/14 05:38:51;;;;;;;12.45;2.35;;;18.10;99.90;;;;;;5091846;28;20808;-68
2022/06/14 05:41:36;;;;;;;6.75;2.00;;;18.20;99.90;;;;;;5093429;28;20315;-67
2022/06/14 05:44:23;;;;;;;9.15;2.20;;;18.20;99.90;;;;;;5092374;28;20039;-67
2022/06/14 05:46:58;;;;;;;7.70;1.75;;;18.40;99.90;;;;;;5110253;27;20673;-67
2022/06/14 05:49:34;;;;;;;8.30;2.00;;;18.40;99.90;;;;;;5076964;28;20048;-67
2022/06/14 05:52:11;;;;;;;8.40;2.47;;;18.50;99.90;;;;;;5099300;28;20047;-67
2022/06/14 05:54:55;;;;;;;7.30;1.75;;;18.60;99.90;;;;;;5080665;28;20048;-68
2022/06/14 05:57:57;;;;;;;6.22;1.60;;;18.80;99.90;;;;;;5099424;27;20527;-67
2022/06/14 06:00:36;;;;;;;8.75;1.70;;;18.80;99.90;;;;;;5088254;28;20081;-67
2022/06/14 06:03:27;;;;;;;5.13;1.50;;;18.80;99.90;;;;;;5079159;28;20035;-67
2022/06/14 06:06:18;;;;;;;6.43;1.80;;;18.90;99.90;;;;;;5098752;28;20052;-67
2022/06/14 06:08:55;;;;;;;10.15;2.28;;;19.10;99.90;;;;;;5074513;28;20040;-67
2022/06/14 06:11:37;;;;;;;10.52;2.05;;;19.20;99.90;;;;;;5094453;28;20063;-67
2022/06/14 06:14:20;;;;;;;7.93;1.60;;;19.30;99.90;;;;;;5078564;28;20074;-66
2022/06/14 06:16:56;;;;;;;5.40;1.48;;;19.40;99.90;;;;;;5095494;27;20040;-67
2022/06/14 06:19:32;;;;;;;16.67;3.05;;;19.40;99.90;;;;;;5089250;28;20455;-67
2022/06/14 06:22:47;;;;;;;7.43;1.85;;;19.50;99.90;;;;;;5085530;28;20036;-67
2022/06/14 06:25:21;;;;;;;10.57;3.00;;;19.50;99.90;;;;;;5057790;28;20164;-67
2022/06/14 06:27:49;;;;;;;7.70;2.53;;;19.60;99.90;;;;;;5090183;28;20062;-67
2022/06/14 06:30:38;;;;;;;10.27;1.90;;;19.60;99.90;;;;;;5086140;28;20440;-67
2022/06/14 06:33:06;;;;;;;4.55;1.40;;;19.80;99.90;;;;;;5071614;28;20070;-67
2022/06/14 06:36:01;;;;;;;7.25;1.77;;;19.80;99.90;;;;;;5071040;28;20092;-67
2022/06/14 06:38:50;;;;;;;6.10;1.70;;;20.00;99.90;;;;;;5022686;28;20044;-67
2022/06/14 06:44:07;;;;;;;6.93;1.83;;;20.30;99.90;;;;;;5070598;28;20048;-67
2022/06/14 06:46:42;;;;;;;3.90;1.35;;;20.30;99.90;;;;;;5097474;27;20071;-67
2022/06/14 06:49:12;;;;;;;8.00;2.00;;;20.50;99.90;;;;;;5070720;28;20492;-67
2022/06/14 06:51:47;;;;;;;6.95;2.03;;;20.60;99.90;;;;;;5075026;28;20046;-67
2022/06/14 06:54:24;;;;;;;5.17;1.43;;;20.70;99.90;;;;;;5067686;28;20408;-67
2022/06/14 06:56:55;;;;;;;9.38;1.58;;;20.80;99.90;;;;;;5087562;28;20628;-67
2022/06/14 06:59:41;;;;;;;5.90;1.33;;;20.90;99.90;;;;;;5063771;28;20036;-67
2022/06/14 07:02:19;;;;;;;;;;;20.90;99.90;;;;;;5102408;27;20123;-67
2022/06/14 07:08:02;;;;;;;16.17;1.67;;;20.90;99.90;;;;;;5070730;28;20123;-67
2022/06/14 07:10:45;;;;;;;4.07;0.88;;;20.90;99.90;;;;;;5085566;28;20039;-67
2022/06/14 07:13:17;;;;;;;4.50;1.05;;;21.00;99.90;;;;;;5069611;28;20068;-67
2022/06/14 07:15:51;;;;;;;5.97;1.45;;;21.10;99.90;;;;;;5062320;28;20044;-67
2022/06/14 07:18:27;;;;;;;19.00;1.98;;;21.10;99.90;;;;;;5091967;28;20501;-67
2022/06/14 07:20:57;;;;;;;6.22;1.30;;;21.10;99.90;;;;;;5090094;28;20479;-67
2022/06/14 07:23:29;;;;;;;4.32;1.17;;;21.20;99.90;;;;;;5071803;28;20039;-66
2022/06/14 07:26:27;;;;;;;5.90;1.63;;;21.20;99.90;;;;;;5051717;28;20048;-67
2022/06/14 07:29:03;;;;;;;6.93;1.42;;;21.40;99.90;;;;;;5025356;28;20087;-67
2022/06/14 07:31:36;;;;;;;5.97;1.40;;;21.10;99.90;;;;;;5066651;28;20052;-67
2022/06/14 07:34:02;;;;;;;6.32;1.20;;;20.70;99.90;;;;;;5069443;28;20374;-67
2022/06/14 07:37:00;;;;;;;6.03;1.98;;;20.40;99.90;;;;;;5088206;28;20056;-67
2022/06/14 07:39:45;;;;;;;5.90;0.93;;;20.20;99.90;;;;;;5089187;28;20032;-67
2022/06/14 07:42:36;;;;;;;5.18;1.08;;;20.00;99.90;;;;;;5088075;28;20069;-67
2022/06/14 07:45:13;;;;;;;3.35;1.15;;;20.00;99.90;;;;;;5085775;28;20424;-67
2022/06/14 07:48:02;;;;;;;5.47;1.00;;;20.20;99.90;;;;;;5059158;28;20050;-67
2022/06/14 07:50:33;;;;;;;7.55;1.58;;;20.50;99.90;;;;;;5052031;28;20044;-67
2022/06/14 07:53:20;;;;;;;5.70;1.20;;;20.80;99.90;;;;;;5087530;28;20132;-67
2022/06/14 07:55:50;;;;;;;3.38;0.73;;;21.10;99.90;;;;;;5080611;28;20553;-67
2022/06/14 07:58:24;;;;;;;3.30;0.82;;;21.20;99.90;;;;;;5096970;28;20118;-66
2022/06/14 08:01:07;;;;;;;5.13;0.90;;;21.00;99.90;;;;;;5071285;28;20059;-67
2022/06/14 08:03:54;;;;;;;4.10;1.30;;;21.10;99.90;;;;;;5084660;28;20028;-67
2022/06/14 08:06:27;;;;;;;5.03;0.73;;;21.20;99.90;;;;;;5087958;28;20036;-67
2022/06/14 08:09:34;;;;;;;5.75;1.23;;;21.30;99.90;;;;;;5060107;28;20048;-66
2022/06/14 08:12:04;;;;;;;4.85;1.17;;;21.50;99.90;;;;;;5106480;27;20044;-67
2022/06/14 08:14:49;;;;;;;6.28;1.40;;;21.60;99.90;;;;;;5084607;28;20039;-67
2022/06/14 08:17:23;;;;;;;5.55;1.10;;;21.60;99.90;;;;;;5092148;28;20058;-66
2022/06/14 08:19:57;;;;;;;5.70;1.00;;;21.30;99.90;;;;;;5088808;28;20040;-66
2022/06/14 08:22:46;;;;;;;4.90;1.33;;;21.10;99.90;;;;;;5089618;28;20063;-66
2022/06/14 08:25:20;;;;;;;4.65;1.10;;;21.10;99.90;;;;;;5085838;28;20047;-66
2022/06/14 08:28:06;;;;;;;5.85;1.42;;;21.30;99.90;;;;;;5064159;28;20063;-66
2022/06/14 08:30:38;;;;;;;3.83;0.88;;;21.50;99.90;;;;;;5085868;28;20032;-66
2022/06/14 08:33:16;;;;;;;4.13;0.98;;;21.40;99.90;;;;;;5088429;28;20680;-66
2022/06/14 08:35:50;;;;;;;6.38;0.90;;;21.20;99.90;;;;;;5071009;28;20524;-66
2022/06/14 08:38:27;;;;;;;4.18;0.90;;;21.20;99.90;;;;;;5085577;28;20109;-66
2022/06/14 08:41:18;;;;;;;10.98;1.52;;;21.40;99.90;;;;;;5072565;28;20076;-67
2022/06/14 08:43:45;;;;;;;6.25;1.50;;;21.30;99.90;;;;;;5086443;28;20600;-66
2022/06/14 08:46:25;;;;;;;7.20;1.77;;;21.20;99.90;;;;;;5102506;27;20040;-66
2022/06/14 08:49:29;;;;;;;3.63;1.13;;;21.40;99.90;;;;;;5089651;28;20153;-66
2022/06/14 08:52:17;;;;;;;4.47;1.20;;;21.90;99.90;;;;;;5068896;28;20083;-66
2022/06/14 08:54:56;;;;;;;5.43;0.98;;;22.00;99.90;;;;;;5071149;28;20086;-66
2022/06/14 08:57:37;;;;;;;5.20;1.00;;;21.80;99.90;;;;;;5064984;28;20123;-66
2022/06/14 09:00:29;;;;;;;5.07;1.08;;;21.50;99.90;;;;;;5078578;28;20085;-66
2022/06/14 09:03:21;;;;;;;5.90;1.23;;;21.30;99.90;;;;;;5068197;28;20138;-65
2022/06/14 09:06:26;;;;;;;1.40;0.50;;;21.40;99.90;;;;;;5088907;28;20087;-67
2022/06/14 09:09:18;;;;;;;4.70;0.70;;;21.50;99.90;;;;;;5105826;27;20132;-66
2022/06/14 09:11:49;;;;;;;2.50;0.65;;;21.50;99.90;;;;;;5099361;27;20123;-66
2022/06/14 09:14:38;;;;;;;2.85;0.75;;;21.40;99.90;;;;;;5087467;28;20451;-66
2022/06/14 09:17:26;;;;;;;3.53;0.95;;;21.50;98.30;;;;;;5086037;28;20050;-66
2022/06/14 09:20:10;;;;;;;7.03;1.35;;;21.90;99.90;;;;;;5090449;28;20048;-67
2022/06/14 09:22:41;;;;;;;4.25;1.08;;;22.00;99.90;;;;;;5102676;27;20164;-66
2022/06/14 09:25:36;;;;;;;5.70;1.05;;;21.80;99.90;;;;;;5072485;28;20052;-66
2022/06/14 09:28:52;;;;;;;4.57;0.85;;;21.50;99.90;;;;;;5085793;28;20044;-66
2022/06/14 09:31:35;;;;;;;3.88;1.05;;;21.20;99.90;;;;;;5043841;28;20051;-66
2022/06/14 09:34:22;;;;;;;3.80;1.20;;;20.80;99.90;;;;;;5088109;28;20040;-66
2022/06/14 09:37:15;;;;;;;4.25;0.60;;;20.60;99.90;;;;;;5087881;28;20048;-66
2022/06/14 09:40:12;;;;;;;3.58;0.77;;;20.40;99.90;;;;;;5083531;28;20055;-66
2022/06/14 09:42:55;;;;;;;3.88;0.98;;;20.20;99.90;;;;;;5070427;28;20036;-67
2022/06/14 09:45:46;;;;;;;3.65;0.80;;;20.30;99.90;;;;;;5090630;28;20051;-66
2022/06/14 09:48:32;;;;;;;3.35;0.77;;;20.60;99.90;;;;;;5068478;28;20465;-67
2022/06/14 09:51:00;;;;;;;2.50;0.80;;;20.90;99.90;;;;;;5104628;27;21556;-66
2022/06/14 09:53:53;;;;;;;2.10;0.50;;;20.90;99.90;;;;;;5070172;28;20047;-66
2022/06/14 09:56:48;;;;;;;2.45;0.55;;;21.10;99.90;;;;;;5070495;28;20079;-66
2022/06/14 09:59:52;;;;;;;5.93;1.00;;;21.30;99.90;;;;;;5091728;28;20094;-66
2022/06/14 10:02:26;;;;;;;3.33;0.80;;;21.50;99.90;;;;;;5085812;27;20141;-66
2022/06/14 10:05:10;;;;;;;3.17;0.63;;;21.50;99.90;;;;;;5070055;28;20048;-66
2022/06/14 10:08:14;;;;;;;7.03;1.10;;;21.40;99.90;;;;;;5044415;28;20039;-67
2022/06/14 10:10:46;;;;;;;3.30;0.60;;;21.30;99.90;;;;;;5084481;28;20067;-67
2022/06/14 10:13:33;;;;;;;1.55;0.40;;;21.20;99.90;;;;;;5065773;28;20032;-67
2022/06/14 10:16:20;;;;;;;2.08;0.60;;;21.10;99.90;;;;;;5084985;28;20058;-66
2022/06/14 10:19:02;;;;;;;4.63;0.95;;;21.10;99.90;;;;;;5086458;28;20036;-66
2022/06/14 10:21:46;;;;;;;5.55;0.63;;;21.20;99.90;;;;;;5075456;28;20036;-66
2022/06/14 10:24:28;;;;;;;3.78;0.70;;;21.20;99.90;;;;;;5069384;28;20028;-67
2022/06/14 10:30:34;;;;;;;3.00;0.95;;;21.30;99.90;;;;;;4980783;28;20042;-66
2022/06/14 10:33:18;;;;;;;3.08;0.70;;;21.30;99.90;;;;;;4964786;28;20671;-67
2022/06/14 10:35:53;;;;;;;3.58;0.63;;;21.20;99.90;;;;;;5054466;28;20051;-66
2022/06/14 10:38:36;;;;;;;2.42;0.70;;;20.90;99.90;;;;;;5086105;28;20044;-66
2022/06/14 10:41:12;;;;;;;3.03;0.85;;;21.00;99.90;;;;;;5071673;28;20056;-67
2022/06/14 10:43:55;;;;;;;3.30;0.50;;;20.70;99.90;;;;;;5092471;28;20040;-67
2022/06/14 10:46:27;;;;;;;3.05;1.25;;;20.60;99.90;;;;;;5094857;28;20490;-66
2022/06/14 10:49:06;;;;;;;3.38;0.68;;;20.70;99.90;;;;;;5097707;28;20043;-67
2022/06/14 10:52:11;;;;;;;4.88;0.90;;;20.70;99.90;;;;;;5111400;27;20032;-67
2022/06/14 10:54:52;;;;;;;2.45;0.60;;;20.60;99.90;;;;;;5060818;28;20055;-67
2022/06/14 10:57:24;;;;;;;5.85;0.75;;;20.60;99.90;;;;;;5088991;28;20039;-66
2022/06/14 11:00:01;;;;;;;3.13;0.60;;;20.50;99.90;;;;;;5096346;28;20036;-66
2022/06/14 11:03:04;;;;;;;6.32;0.85;;;20.60;99.90;;;;;;5082676;28;20238;-66
2022/06/14 11:05:48;;;;;;;3.15;1.17;;;20.30;99.90;;;;;;5078645;28;20044;-66
2022/06/14 11:08:45;;;;;;;4.18;1.15;;;20.00;99.90;;;;;;5090667;28;20489;-66
2022/06/14 11:11:42;;;;;;;3.25;1.02;;;19.80;99.90;;;;;;5073788;28;20074;-66
2022/06/14 11:14:33;;;;;;;2.75;0.98;;;19.70;99.90;;;;;;5093534;28;20107;-66
2022/06/14 11:17:32;;;;;;;2.72;0.80;;;19.80;99.90;;;;;;5069543;27;20052;-66
2022/06/14 11:20:17;;;;;;;1.75;0.50;;;19.90;99.90;;;;;;5080801;28;20055;-66
2022/06/14 11:23:07;;;;;;;3.95;1.08;;;19.90;99.90;;;;;;5076714;28;20389;-66
2022/06/14 11:25:49;;;;;;;3.33;0.60;;;19.80;99.90;;;;;;5109951;27;20478;-66
2022/06/14 11:28:30;;;;;;;2.03;0.70;;;19.90;99.90;;;;;;5079164;28;20047;-66
2022/06/14 11:31:23;;;;;;;4.85;1.23;;;19.90;99.90;;;;;;5089060;28;20180;-66
2022/06/14 11:34:33;;;;;;;2.55;0.63;;;19.90;99.90;;;;;;5078428;28;20103;-66
2022/06/14 11:37:26;;;;;;;3.60;1.00;;;20.00;99.90;;;;;;5079584;28;20044;-66
2022/06/14 11:40:10;;;;;;;4.05;0.60;;;20.00;99.90;;;;;;5091789;28;20044;-66
2022/06/14 11:42:50;;;;;;;2.65;0.93;;;20.00;99.90;;;;;;5067991;28;20123;-66
2022/06/14 11:45:42;;;;;;;3.58;0.77;;;20.00;99.90;;;;;;5112826;27;20040;-66
2022/06/14 11:48:19;;;;;;;3.00;0.73;;;20.20;99.90;;;;;;5067262;28;20123;-66
2022/06/14 11:51:01;;;;;;;3.65;1.50;;;20.30;99.90;;;;;;5095242;28;20109;-66
2022/06/14 11:53:50;;;;;;;4.85;0.80;;;20.40;99.90;;;;;;5074132;28;20035;-67
2022/06/14 11:56:24;;;;;;;5.82;0.90;;;20.50;99.90;;;;;;5081496;28;20396;-66
2022/06/14 11:59:16;;;;;;;1.67;0.50;;;20.20;99.90;;;;;;5097422;28;20497;-66
2022/06/14 12:02:15;;;;;;;5.35;0.75;;;20.10;99.90;;;;;;5098660;28;20043;-66
2022/06/14 12:04:43;;;;;;;1.40;0.73;;;20.10;99.90;;;;;;5114942;27;20051;-66
2022/06/14 12:07:25;;;;;;;3.10;0.85;;;20.30;99.90;;;;;;5096317;28;20040;-66
2022/06/14 12:10:27;;;;;;;2.10;0.68;;;20.20;99.90;;;;;;5099953;28;20044;-66
2022/06/14 12:13:08;;;;;;;1.98;0.47;;;20.20;99.90;;;;;;5111792;27;20043;-66
2022/06/14 12:15:53;;;;;;;4.05;0.70;;;20.10;99.90;;;;;;5084080;28;20054;-66
2022/06/14 12:18:23;;;;;;;1.23;0.40;;;20.10;99.90;;;;;;5077229;28;20119;-66
2022/06/14 12:21:13;;;;;;;2.97;0.45;;;20.00;99.90;;;;;;5090956;28;20444;-66
2022/06/14 12:23:53;;;;;;;1.67;0.60;;;20.10;99.90;;;;;;5098256;28;20462;-66
2022/06/14 12:26:34;;;;;;;3.33;0.55;;;20.40;99.90;;;;;;5112548;27;20039;-66
2022/06/14 12:29:14;;;;;;;2.35;0.60;;;20.60;99.90;;;;;;5097278;28;20044;-66
2022/06/14 12:32:04;;;;;;;2.83;0.57;;;20.70;99.90;;;;;;5115544;27;20051;-66
2022/06/14 12:34:46;;;;;;;1.98;0.45;;;20.70;99.90;;;;;;5108063;27;20458;-66
2022/06/14 12:37:34;;;;;;;3.53;0.52;;;20.70;99.90;;;;;;5098939;28;20047;-66
2022/06/14 12:40:06;;;;;;;2.30;0.73;;;20.60;99.90;;;;;;5082388;28;20489;-66
2022/06/14 12:42:44;;;;;;;2.00;0.40;;;20.60;99.90;;;;;;5082643;28;20043;-66
2022/06/14 12:45:24;;;;;;;6.55;0.93;;;20.70;99.90;;;;;;5099045;28;20048;-66
2022/06/14 12:48:21;;;;;;;2.20;0.52;;;20.60;99.90;;;;;;5110917;27;20502;-66
2022/06/14 12:50:54;;;;;;;3.08;0.70;;;20.70;99.90;;;;;;5094065;28;20042;-66
2022/06/14 12:53:33;;;;;;;2.35;0.70;;;20.80;99.90;;;;;;5076333;28;20457;-66
2022/06/14 12:56:21;;;;;;;7.25;0.70;;;20.90;99.90;;;;;;5099528;28;20130;-66
2022/06/14 12:59:11;;;;;;;5.05;1.17;;;21.00;99.90;;;;;;5097886;28;20429;-67
2022/06/14 13:01:58;;;;;;;4.35;1.20;;;21.10;99.90;;;;;;5080008;28;21551;-66
2022/06/14 13:04:33;;;;;;;2.05;0.73;;;21.30;99.90;;;;;;5075375;28;20189;-66
2022/06/14 13:07:27;;;;;;;3.15;0.73;;;21.40;99.90;;;;;;5080361;28;20085;-66
2022/06/14 13:10:17;;;;;;;4.07;0.73;;;21.40;99.90;;;;;;5097297;28;20040;-66
2022/06/14 13:13:13;;;;;;;3.10;0.60;;;21.40;99.90;;;;;;5098653;28;20033;-66
2022/06/14 13:15:42;;;;;;;2.25;0.60;;;21.50;99.90;;;;;;5080653;28;20043;-66
2022/06/14 13:18:46;;;;;;;5.50;0.80;;;21.40;99.90;;;;;;5096359;28;20028;-66
2022/06/14 13:21:33;;;;;;;4.22;0.50;;;21.40;99.90;;;;;;5096897;28;20058;-66
2022/06/14 13:24:13;;;;;;;3.78;0.80;;;21.40;99.90;;;;;;5096063;28;20035;-66
2022/06/14 13:27:06;;;;;;;2.25;0.50;;;21.30;99.90;;;;;;5080274;28;20043;-66
2022/06/14 13:29:32;;;;;;;2.35;0.80;;;21.30;99.90;;;;;;5115238;27;20051;-66
2022/06/14 13:32:10;;;;;;;2.28;0.57;;;21.30;99.90;;;;;;5099136;28;20143;-66
2022/06/14 13:35:00;;;;;;;1.63;0.40;;;21.20;99.90;;;;;;5092058;28;20500;-66
2022/06/14 13:37:57;;;;;;;2.85;0.60;;;21.30;99.90;;;;;;5099178;28;20040;-66
2022/06/14 13:40:26;;;;;;;;;;;21.30;99.90;;;;;;5080954;28;20036;-66
2022/06/14 13:42:58;;;;;;;1.92;0.60;;;21.50;99.60;;;;;;5077741;28;20006;-66
2022/06/14 13:45:36;;;;;;;2.67;1.17;;;21.60;99.90;;;;;;5078338;28;20039;-66
2022/06/14 13:48:08;;;;;;;2.05;0.70;;;21.60;99.20;;;;;;5110817;27;20052;-66
2022/06/14 13:50:54;;;;;;;6.57;0.90;;;21.60;99.60;;;;;;5079632;28;20044;-66
2022/06/14 13:53:26;;;;;;;4.53;0.95;;;21.60;99.60;;;;;;5092940;28;20036;-66
2022/06/14 13:56:14;;;;;;;10.95;0.95;;;21.60;99.90;;;;;;5063313;28;20049;-66
2022/06/14 13:58:49;;;;;;;2.30;0.57;;;21.80;99.90;;;;;;5097213;28;20160;-66
2022/06/14 14:01:34;;;;;;;1.77;0.57;;;21.80;99.90;;;;;;5081558;28;20044;-66
2022/06/14 14:04:16;;;;;;;2.72;0.75;;;21.70;99.90;;;;;;5075282;28;20478;-66
2022/06/14 14:06:49;;;;;;;2.00;0.70;;;21.60;99.90;;;;;;5078984;28;20040;-66
2022/06/14 14:09:22;;;;;;;2.30;0.60;;;21.50;99.90;;;;;;5099009;28;20040;-66
2022/06/14 14:12:13;;;;;;;1.67;0.50;;;21.40;99.90;;;;;;5092735;28;20078;-66
2022/06/14 14:15:02;;;;;;;1.83;0.50;;;21.20;99.90;;;;;;5077493;28;20044;-66